sensor_id;sensor_type;location;lat;lon;timestamp;P1;durP1;ratioP1;P2;durP2;ratioP2
19951;SDS011;10137;49.406;19.484;2023-08-31T00:00:00;2.57;;;2.00;;
19951;SDS011;10137;49.406;19.484;2023-08-31T00:02:29;2.07;;;1.87;;
19951;SDS011;10137;49.406;19.484;2023-08-31T00:04:56;2.47;;;1.73;;
19951;SDS011;10137;49.406;19.484;2023-08-31T00:07:23;1.97;;;1.50;;
19951;SDS011;10137;49.406;19.484;2023-08-31T00:09:50;2.27;;;1.40;;
19951;SDS011;10137;49.406;19.484;2023-08-31T00:12:19;4.63;;;1.90;;
19951;SDS011;10137;49.406;19.484;2023-08-31T00:14:47;1.97;;;1.30;;
19951;SDS011;10137;49.406;19.484;2023-08-31T00:17:15;1.63;;;1.50;;
19951;SDS011;10137;49.406;19.484;2023-08-31T00:19:43;1.80;;;1.43;;
19951;SDS011;10137;49.406;19.484;2023-08-31T00:22:09;3.27;;;1.50;;
19951;SDS011;10137;49.406;19.484;2023-08-31T00:24:37;2.77;;;1.30;;
19951;SDS011;10137;49.406;19.484;2023-08-31T00:27:04;1.77;;;1.20;;
19951;SDS011;10137;49.406;19.484;2023-08-31T00:29:34;1.20;;;1.10;;
19951;SDS011;10137;49.406;19.484;2023-08-31T00:32:02;1.60;;;1.03;;
19951;SDS011;10137;49.406;19.484;2023-08-31T00:34:29;1.17;;;1.07;;
19951;SDS011;10137;49.406;19.484;2023-08-31T00:36:56;0.83;;;0.80;;
19951;SDS011;10137;49.406;19.484;2023-08-31T00:39:22;1.10;;;0.90;;
19951;SDS011;10137;49.406;19.484;2023-08-31T00:41:50;3.10;;;1.20;;
19951;SDS011;10137;49.406;19.484;2023-08-31T00:44:19;1.40;;;1.30;;
19951;SDS011;10137;49.406;19.484;2023-08-31T00:46:48;1.90;;;1.50;;
19951;SDS011;10137;49.406;19.484;2023-08-31T00:49:15;2.63;;;1.43;;
19951;SDS011;10137;49.406;19.484;2023-08-31T00:51:43;1.50;;;1.40;;
19951;SDS011;10137;49.406;19.484;2023-08-31T00:54:13;1.90;;;1.20;;
19951;SDS011;10137;49.406;19.484;2023-08-31T00:56:41;2.63;;;1.00;;
19951;SDS011;10137;49.406;19.484;2023-08-31T00:59:08;1.50;;;1.07;;
19951;SDS011;10137;49.406;19.484;2023-08-31T01:01:36;1.10;;;1.00;;
19951;SDS011;10137;49.406;19.484;2023-08-31T01:04:10;1.27;;;0.80;;
19951;SDS011;10137;49.406;19.484;2023-08-31T01:06:47;0.93;;;0.93;;
19951;SDS011;10137;49.406;19.484;2023-08-31T01:09:22;3.00;;;0.90;;
19951;SDS011;10137;49.406;19.484;2023-08-31T01:11:57;5.80;;;1.30;;
19951;SDS011;10137;49.406;19.484;2023-08-31T01:14:32;1.70;;;1.20;;
19951;SDS011;10137;49.406;19.484;2023-08-31T01:17:02;2.53;;;1.20;;
19951;SDS011;10137;49.406;19.484;2023-08-31T01:19:38;1.30;;;1.20;;
19951;SDS011;10137;49.406;19.484;2023-08-31T01:22:11;2.30;;;1.50;;
19951;SDS011;10137;49.406;19.484;2023-08-31T01:24:43;3.00;;;1.17;;
19951;SDS011;10137;49.406;19.484;2023-08-31T01:27:11;1.33;;;1.23;;
19951;SDS011;10137;49.406;19.484;2023-08-31T01:29:39;1.10;;;0.70;;
19951;SDS011;10137;49.406;19.484;2023-08-31T01:32:06;0.80;;;0.80;;
19951;SDS011;10137;49.406;19.484;2023-08-31T01:34:34;2.10;;;0.90;;
19951;SDS011;10137;49.406;19.484;2023-08-31T01:37:12;1.93;;;0.80;;
19951;SDS011;10137;49.406;19.484;2023-08-31T01:39:46;1.33;;;1.00;;
19951;SDS011;10137;49.406;19.484;2023-08-31T01:42:15;1.47;;;0.80;;
19951;SDS011;10137;49.406;19.484;2023-08-31T01:44:43;0.87;;;0.87;;
19951;SDS011;10137;49.406;19.484;2023-08-31T01:47:13;0.90;;;0.73;;
19951;SDS011;10137;49.406;19.484;2023-08-31T01:49:42;1.40;;;0.90;;
19951;SDS011;10137;49.406;19.484;2023-08-31T01:52:09;1.77;;;1.10;;
19951;SDS011;10137;49.406;19.484;2023-08-31T01:54:36;3.07;;;1.20;;
19951;SDS011;10137;49.406;19.484;2023-08-31T01:57:05;1.23;;;1.10;;
19951;SDS011;10137;49.406;19.484;2023-08-31T01:59:32;1.13;;;0.90;;
19951;SDS011;10137;49.406;19.484;2023-08-31T02:01:59;2.20;;;0.90;;
19951;SDS011;10137;49.406;19.484;2023-08-31T02:04:26;1.83;;;0.70;;
19951;SDS011;10137;49.406;19.484;2023-08-31T02:06:53;0.80;;;0.80;;
19951;SDS011;10137;49.406;19.484;2023-08-31T02:09:20;3.23;;;1.00;;
19951;SDS011;10137;49.406;19.484;2023-08-31T02:11:47;1.67;;;1.00;;
19951;SDS011;10137;49.406;19.484;2023-08-31T02:14:15;2.40;;;0.80;;
19951;SDS011;10137;49.406;19.484;2023-08-31T02:16:42;1.63;;;0.80;;
19951;SDS011;10137;49.406;19.484;2023-08-31T02:19:09;1.57;;;0.90;;
19951;SDS011;10137;49.406;19.484;2023-08-31T02:21:36;1.53;;;0.87;;
19951;SDS011;10137;49.406;19.484;2023-08-31T02:24:03;0.90;;;0.80;;
19951;SDS011;10137;49.406;19.484;2023-08-31T02:26:31;0.80;;;0.80;;
19951;SDS011;10137;49.406;19.484;2023-08-31T02:28:59;1.00;;;0.90;;
19951;SDS011;10137;49.406;19.484;2023-08-31T02:31:27;1.23;;;0.97;;
19951;SDS011;10137;49.406;19.484;2023-08-31T02:33:54;1.20;;;0.80;;
19951;SDS011;10137;49.406;19.484;2023-08-31T02:36:21;1.27;;;1.00;;
19951;SDS011;10137;49.406;19.484;2023-08-31T02:38:48;1.00;;;0.83;;
19951;SDS011;10137;49.406;19.484;2023-08-31T02:41:15;2.27;;;1.20;;
19951;SDS011;10137;49.406;19.484;2023-08-31T02:43:42;1.30;;;1.20;;
19951;SDS011;10137;49.406;19.484;2023-08-31T02:46:09;1.60;;;1.30;;
19951;SDS011;10137;49.406;19.484;2023-08-31T02:48:37;1.60;;;1.40;;
19951;SDS011;10137;49.406;19.484;2023-08-31T02:51:04;1.50;;;1.17;;
19951;SDS011;10137;49.406;19.484;2023-08-31T02:53:31;2.43;;;1.70;;
19951;SDS011;10137;49.406;19.484;2023-08-31T02:55:58;1.30;;;1.20;;
19951;SDS011;10137;49.406;19.484;2023-08-31T02:58:25;2.53;;;2.10;;
19951;SDS011;10137;49.406;19.484;2023-08-31T03:00:52;3.57;;;1.40;;
19951;SDS011;10137;49.406;19.484;2023-08-31T03:03:19;2.57;;;1.40;;
19951;SDS011;10137;49.406;19.484;2023-08-31T03:05:47;1.77;;;1.60;;
19951;SDS011;10137;49.406;19.484;2023-08-31T03:08:14;1.53;;;1.43;;
19951;SDS011;10137;49.406;19.484;2023-08-31T03:10:41;1.80;;;1.30;;
19951;SDS011;10137;49.406;19.484;2023-08-31T03:13:08;2.27;;;1.63;;
19951;SDS011;10137;49.406;19.484;2023-08-31T03:15:35;2.90;;;1.30;;
19951;SDS011;10137;49.406;19.484;2023-08-31T03:18:02;2.50;;;1.70;;
19951;SDS011;10137;49.406;19.484;2023-08-31T03:20:29;3.53;;;1.70;;
19951;SDS011;10137;49.406;19.484;2023-08-31T03:22:57;1.97;;;1.67;;
19951;SDS011;10137;49.406;19.484;2023-08-31T03:25:24;2.50;;;1.70;;
19951;SDS011;10137;49.406;19.484;2023-08-31T03:27:51;1.90;;;1.50;;
19951;SDS011;10137;49.406;19.484;2023-08-31T03:30:18;3.80;;;1.77;;
19951;SDS011;10137;49.406;19.484;2023-08-31T03:32:45;2.37;;;1.73;;
19951;SDS011;10137;49.406;19.484;2023-08-31T03:35:11;3.60;;;2.00;;
19951;SDS011;10137;49.406;19.484;2023-08-31T03:37:38;2.73;;;1.93;;
19951;SDS011;10137;49.406;19.484;2023-08-31T03:40:07;3.30;;;1.87;;
19951;SDS011;10137;49.406;19.484;2023-08-31T03:42:35;2.63;;;2.00;;
19951;SDS011;10137;49.406;19.484;2023-08-31T03:45:02;2.60;;;2.00;;
19951;SDS011;10137;49.406;19.484;2023-08-31T03:47:30;2.67;;;1.60;;
19951;SDS011;10137;49.406;19.484;2023-08-31T03:49:57;2.90;;;1.87;;
19951;SDS011;10137;49.406;19.484;2023-08-31T03:52:24;2.03;;;1.57;;
19951;SDS011;10137;49.406;19.484;2023-08-31T03:54:51;3.33;;;1.67;;
19951;SDS011;10137;49.406;19.484;2023-08-31T03:57:19;2.23;;;1.30;;
19951;SDS011;10137;49.406;19.484;2023-08-31T03:59:46;2.00;;;1.57;;
19951;SDS011;10137;49.406;19.484;2023-08-31T04:02:13;1.90;;;1.40;;
19951;SDS011;10137;49.406;19.484;2023-08-31T04:04:40;2.30;;;1.80;;
19951;SDS011;10137;49.406;19.484;2023-08-31T04:07:07;3.07;;;1.97;;
19951;SDS011;10137;49.406;19.484;2023-08-31T04:09:34;2.17;;;1.40;;
19951;SDS011;10137;49.406;19.484;2023-08-31T04:12:01;5.93;;;1.80;;
19951;SDS011;10137;49.406;19.484;2023-08-31T04:14:29;3.60;;;1.80;;
19951;SDS011;10137;49.406;19.484;2023-08-31T04:16:56;5.13;;;2.50;;
19951;SDS011;10137;49.406;19.484;2023-08-31T04:19:23;3.50;;;2.70;;
19951;SDS011;10137;49.406;19.484;2023-08-31T04:21:50;5.87;;;3.43;;
19951;SDS011;10137;49.406;19.484;2023-08-31T04:24:17;5.70;;;4.00;;
19951;SDS011;10137;49.406;19.484;2023-08-31T04:26:44;5.30;;;3.93;;
19951;SDS011;10137;49.406;19.484;2023-08-31T04:29:13;8.23;;;4.13;;
19951;SDS011;10137;49.406;19.484;2023-08-31T04:31:41;8.63;;;4.57;;
19951;SDS011;10137;49.406;19.484;2023-08-31T04:34:08;6.70;;;4.27;;
19951;SDS011;10137;49.406;19.484;2023-08-31T04:36:35;6.47;;;4.97;;
19951;SDS011;10137;49.406;19.484;2023-08-31T04:39:02;8.47;;;5.30;;
19951;SDS011;10137;49.406;19.484;2023-08-31T04:41:29;7.30;;;4.60;;
19951;SDS011;10137;49.406;19.484;2023-08-31T04:43:56;7.83;;;5.33;;
19951;SDS011;10137;49.406;19.484;2023-08-31T04:46:23;9.40;;;5.23;;
19951;SDS011;10137;49.406;19.484;2023-08-31T04:48:52;8.73;;;5.40;;
19951;SDS011;10137;49.406;19.484;2023-08-31T04:51:28;8.10;;;5.63;;
19951;SDS011;10137;49.406;19.484;2023-08-31T04:53:57;7.40;;;5.27;;
19951;SDS011;10137;49.406;19.484;2023-08-31T04:56:24;8.37;;;5.57;;
19951;SDS011;10137;49.406;19.484;2023-08-31T04:58:51;8.87;;;5.83;;
19951;SDS011;10137;49.406;19.484;2023-08-31T05:01:18;8.10;;;5.47;;
19951;SDS011;10137;49.406;19.484;2023-08-31T05:03:45;8.93;;;5.87;;
19951;SDS011;10137;49.406;19.484;2023-08-31T05:06:13;9.50;;;5.90;;
19951;SDS011;10137;49.406;19.484;2023-08-31T05:08:40;8.13;;;5.60;;
19951;SDS011;10137;49.406;19.484;2023-08-31T05:11:07;8.57;;;5.93;;
19951;SDS011;10137;49.406;19.484;2023-08-31T05:13:34;8.67;;;5.93;;
19951;SDS011;10137;49.406;19.484;2023-08-31T05:16:02;10.20;;;5.60;;
19951;SDS011;10137;49.406;19.484;2023-08-31T05:18:30;12.50;;;6.47;;
19951;SDS011;10137;49.406;19.484;2023-08-31T05:20:57;17.80;;;6.10;;
19951;SDS011;10137;49.406;19.484;2023-08-31T05:23:25;10.70;;;5.97;;
19951;SDS011;10137;49.406;19.484;2023-08-31T05:25:52;10.10;;;5.30;;
19951;SDS011;10137;49.406;19.484;2023-08-31T05:28:19;11.00;;;4.63;;
19951;SDS011;10137;49.406;19.484;2023-08-31T05:30:47;14.13;;;5.10;;
19951;SDS011;10137;49.406;19.484;2023-08-31T05:33:16;12.43;;;4.57;;
19951;SDS011;10137;49.406;19.484;2023-08-31T05:35:44;9.40;;;5.03;;
19951;SDS011;10137;49.406;19.484;2023-08-31T05:38:11;8.03;;;4.53;;
19951;SDS011;10137;49.406;19.484;2023-08-31T05:40:39;9.03;;;4.50;;
19951;SDS011;10137;49.406;19.484;2023-08-31T05:43:10;8.13;;;4.03;;
19951;SDS011;10137;49.406;19.484;2023-08-31T05:45:38;6.13;;;3.77;;
19951;SDS011;10137;49.406;19.484;2023-08-31T05:48:07;6.63;;;3.90;;
19951;SDS011;10137;49.406;19.484;2023-08-31T05:50:35;7.33;;;4.53;;
19951;SDS011;10137;49.406;19.484;2023-08-31T05:53:04;7.63;;;4.80;;
19951;SDS011;10137;49.406;19.484;2023-08-31T05:55:34;6.03;;;4.47;;
19951;SDS011;10137;49.406;19.484;2023-08-31T05:58:03;6.07;;;3.97;;
19951;SDS011;10137;49.406;19.484;2023-08-31T06:00:31;6.43;;;4.63;;
19951;SDS011;10137;49.406;19.484;2023-08-31T06:03:00;6.03;;;4.63;;
19951;SDS011;10137;49.406;19.484;2023-08-31T06:05:29;6.13;;;4.30;;
19951;SDS011;10137;49.406;19.484;2023-08-31T06:07:56;7.87;;;4.83;;
19951;SDS011;10137;49.406;19.484;2023-08-31T06:10:24;10.87;;;5.70;;
19951;SDS011;10137;49.406;19.484;2023-08-31T06:12:51;10.83;;;5.40;;
19951;SDS011;10137;49.406;19.484;2023-08-31T06:15:20;7.13;;;4.73;;
19951;SDS011;10137;49.406;19.484;2023-08-31T06:17:47;7.07;;;4.63;;
19951;SDS011;10137;49.406;19.484;2023-08-31T06:20:14;8.30;;;4.77;;
19951;SDS011;10137;49.406;19.484;2023-08-31T06:22:41;9.57;;;4.93;;
19951;SDS011;10137;49.406;19.484;2023-08-31T06:25:08;7.40;;;5.10;;
19951;SDS011;10137;49.406;19.484;2023-08-31T06:27:36;7.27;;;4.03;;
19951;SDS011;10137;49.406;19.484;2023-08-31T06:30:03;5.57;;;3.73;;
19951;SDS011;10137;49.406;19.484;2023-08-31T06:32:34;6.00;;;3.80;;
19951;SDS011;10137;49.406;19.484;2023-08-31T06:35:01;6.70;;;3.67;;
19951;SDS011;10137;49.406;19.484;2023-08-31T06:37:28;4.37;;;3.23;;
19951;SDS011;10137;49.406;19.484;2023-08-31T06:39:55;7.37;;;3.30;;
19951;SDS011;10137;49.406;19.484;2023-08-31T06:42:22;5.77;;;3.33;;
19951;SDS011;10137;49.406;19.484;2023-08-31T06:44:52;6.53;;;3.57;;
19951;SDS011;10137;49.406;19.484;2023-08-31T06:47:21;5.27;;;3.43;;
19951;SDS011;10137;49.406;19.484;2023-08-31T06:49:50;5.13;;;3.20;;
19951;SDS011;10137;49.406;19.484;2023-08-31T06:52:18;3.97;;;2.93;;
19951;SDS011;10137;49.406;19.484;2023-08-31T06:54:45;4.53;;;2.80;;
19951;SDS011;10137;49.406;19.484;2023-08-31T06:57:12;3.97;;;2.70;;
19951;SDS011;10137;49.406;19.484;2023-08-31T06:59:39;4.90;;;3.00;;
19951;SDS011;10137;49.406;19.484;2023-08-31T07:02:06;4.13;;;2.73;;
19951;SDS011;10137;49.406;19.484;2023-08-31T07:04:33;3.40;;;2.73;;
19951;SDS011;10137;49.406;19.484;2023-08-31T07:07:02;6.77;;;2.67;;
19951;SDS011;10137;49.406;19.484;2023-08-31T07:09:30;3.87;;;2.43;;
19951;SDS011;10137;49.406;19.484;2023-08-31T07:11:57;3.70;;;2.60;;
19951;SDS011;10137;49.406;19.484;2023-08-31T07:14:24;3.43;;;2.47;;
19951;SDS011;10137;49.406;19.484;2023-08-31T07:16:51;7.00;;;3.33;;
19951;SDS011;10137;49.406;19.484;2023-08-31T07:19:18;5.40;;;3.83;;
19951;SDS011;10137;49.406;19.484;2023-08-31T07:21:45;6.33;;;3.67;;
19951;SDS011;10137;49.406;19.484;2023-08-31T07:24:14;9.67;;;3.10;;
19951;SDS011;10137;49.406;19.484;2023-08-31T07:26:41;5.37;;;3.67;;
19951;SDS011;10137;49.406;19.484;2023-08-31T07:29:08;5.83;;;3.73;;
19951;SDS011;10137;49.406;19.484;2023-08-31T07:31:35;5.07;;;3.20;;
19951;SDS011;10137;49.406;19.484;2023-08-31T07:34:02;4.00;;;3.03;;
19951;SDS011;10137;49.406;19.484;2023-08-31T07:36:29;4.77;;;3.00;;
19951;SDS011;10137;49.406;19.484;2023-08-31T07:38:56;5.60;;;2.97;;
19951;SDS011;10137;49.406;19.484;2023-08-31T07:41:25;6.50;;;3.10;;
19951;SDS011;10137;49.406;19.484;2023-08-31T07:43:52;5.77;;;2.87;;
19951;SDS011;10137;49.406;19.484;2023-08-31T07:46:19;9.60;;;3.30;;
19951;SDS011;10137;49.406;19.484;2023-08-31T07:48:46;5.00;;;3.20;;
19951;SDS011;10137;49.406;19.484;2023-08-31T07:51:14;4.93;;;3.13;;
19951;SDS011;10137;49.406;19.484;2023-08-31T07:53:40;5.67;;;2.50;;
19951;SDS011;10137;49.406;19.484;2023-08-31T07:56:07;9.03;;;3.13;;
19951;SDS011;10137;49.406;19.484;2023-08-31T07:58:36;4.07;;;2.53;;
19951;SDS011;10137;49.406;19.484;2023-08-31T08:01:03;7.27;;;2.10;;
19951;SDS011;10137;49.406;19.484;2023-08-31T08:03:30;5.60;;;1.70;;
19951;SDS011;10137;49.406;19.484;2023-08-31T08:05:57;3.03;;;1.60;;
19951;SDS011;10137;49.406;19.484;2023-08-31T08:08:24;6.37;;;1.73;;
19951;SDS011;10137;49.406;19.484;2023-08-31T08:10:52;7.80;;;2.40;;
19951;SDS011;10137;49.406;19.484;2023-08-31T08:13:19;6.43;;;2.40;;
19951;SDS011;10137;49.406;19.484;2023-08-31T08:15:47;4.70;;;2.87;;
19951;SDS011;10137;49.406;19.484;2023-08-31T08:18:15;5.40;;;3.07;;
19951;SDS011;10137;49.406;19.484;2023-08-31T08:20:42;3.57;;;2.53;;
19951;SDS011;10137;49.406;19.484;2023-08-31T08:23:08;4.50;;;2.50;;
19951;SDS011;10137;49.406;19.484;2023-08-31T08:25:35;4.60;;;2.17;;
19951;SDS011;10137;49.406;19.484;2023-08-31T08:28:02;5.70;;;2.33;;
19951;SDS011;10137;49.406;19.484;2023-08-31T08:30:29;2.60;;;2.00;;
19951;SDS011;10137;49.406;19.484;2023-08-31T08:32:58;2.83;;;1.97;;
19951;SDS011;10137;49.406;19.484;2023-08-31T08:35:25;4.67;;;2.40;;
19951;SDS011;10137;49.406;19.484;2023-08-31T08:37:52;3.63;;;2.10;;
19951;SDS011;10137;49.406;19.484;2023-08-31T08:40:19;5.43;;;2.27;;
19951;SDS011;10137;49.406;19.484;2023-08-31T08:42:46;8.67;;;2.40;;
19951;SDS011;10137;49.406;19.484;2023-08-31T08:45:14;4.70;;;1.67;;
19951;SDS011;10137;49.406;19.484;2023-08-31T08:47:42;3.93;;;1.63;;
19951;SDS011;10137;49.406;19.484;2023-08-31T08:50:12;3.03;;;2.00;;
19951;SDS011;10137;49.406;19.484;2023-08-31T08:52:39;3.23;;;2.10;;
19951;SDS011;10137;49.406;19.484;2023-08-31T08:55:08;2.17;;;1.77;;
19951;SDS011;10137;49.406;19.484;2023-08-31T08:57:35;3.20;;;1.87;;
19951;SDS011;10137;49.406;19.484;2023-08-31T09:00:03;2.10;;;1.80;;
19951;SDS011;10137;49.406;19.484;2023-08-31T09:02:31;3.27;;;1.97;;
19951;SDS011;10137;49.406;19.484;2023-08-31T09:04:58;7.40;;;2.37;;
19951;SDS011;10137;49.406;19.484;2023-08-31T09:07:27;7.67;;;2.40;;
19951;SDS011;10137;49.406;19.484;2023-08-31T09:09:56;9.30;;;2.20;;
19951;SDS011;10137;49.406;19.484;2023-08-31T09:12:23;6.17;;;1.90;;
19951;SDS011;10137;49.406;19.484;2023-08-31T09:14:57;3.57;;;1.63;;
19951;SDS011;10137;49.406;19.484;2023-08-31T09:17:25;5.33;;;2.50;;
19951;SDS011;10137;49.406;19.484;2023-08-31T09:19:58;3.30;;;1.73;;
19951;SDS011;10137;49.406;19.484;2023-08-31T09:22:30;2.40;;;1.80;;
19951;SDS011;10137;49.406;19.484;2023-08-31T09:24:57;7.80;;;2.23;;
19951;SDS011;10137;49.406;19.484;2023-08-31T09:27:24;4.90;;;2.10;;
19951;SDS011;10137;49.406;19.484;2023-08-31T09:29:54;8.17;;;2.00;;
19951;SDS011;10137;49.406;19.484;2023-08-31T09:32:21;4.33;;;2.30;;
19951;SDS011;10137;49.406;19.484;2023-08-31T09:34:48;6.30;;;2.00;;
19951;SDS011;10137;49.406;19.484;2023-08-31T09:37:15;5.10;;;2.20;;
19951;SDS011;10137;49.406;19.484;2023-08-31T09:39:44;2.77;;;1.93;;
19951;SDS011;10137;49.406;19.484;2023-08-31T09:42:11;5.30;;;2.30;;
19951;SDS011;10137;49.406;19.484;2023-08-31T09:44:39;2.67;;;2.20;;
19951;SDS011;10137;49.406;19.484;2023-08-31T09:47:09;4.03;;;2.40;;
19951;SDS011;10137;49.406;19.484;2023-08-31T09:49:36;4.47;;;2.10;;
19951;SDS011;10137;49.406;19.484;2023-08-31T09:52:07;6.30;;;2.83;;
19951;SDS011;10137;49.406;19.484;2023-08-31T09:54:36;6.20;;;2.13;;
19951;SDS011;10137;49.406;19.484;2023-08-31T09:57:05;3.67;;;2.30;;
19951;SDS011;10137;49.406;19.484;2023-08-31T09:59:35;3.00;;;2.17;;
19951;SDS011;10137;49.406;19.484;2023-08-31T10:02:03;3.35;;;1.80;;
19951;SDS011;10137;49.406;19.484;2023-08-31T10:04:34;2.85;;;1.88;;
19951;SDS011;10137;49.406;19.484;2023-08-31T10:07:04;5.40;;;2.03;;
19951;SDS011;10137;49.406;19.484;2023-08-31T10:09:33;5.30;;;2.30;;
19951;SDS011;10137;49.406;19.484;2023-08-31T10:12:04;3.58;;;2.15;;
19951;SDS011;10137;49.406;19.484;2023-08-31T10:14:34;6.05;;;1.90;;
19951;SDS011;10137;49.406;19.484;2023-08-31T10:17:03;2.83;;;1.85;;
19951;SDS011;10137;49.406;19.484;2023-08-31T10:19:32;2.78;;;1.83;;
19951;SDS011;10137;49.406;19.484;2023-08-31T10:22:00;3.38;;;1.80;;
19951;SDS011;10137;49.406;19.484;2023-08-31T10:27:27;3.33;;;1.65;;
19951;SDS011;10137;49.406;19.484;2023-08-31T10:29:55;3.10;;;1.77;;
19951;SDS011;10137;49.406;19.484;2023-08-31T10:32:23;2.67;;;2.10;;
19951;SDS011;10137;49.406;19.484;2023-08-31T10:35:04;1.88;;;1.70;;
19951;SDS011;10137;49.406;19.484;2023-08-31T10:37:33;2.30;;;1.50;;
19951;SDS011;10137;49.406;19.484;2023-08-31T10:40:08;2.58;;;1.67;;
19951;SDS011;10137;49.406;19.484;2023-08-31T10:42:45;3.40;;;1.65;;
19951;SDS011;10137;49.406;19.484;2023-08-31T10:45:14;3.15;;;2.03;;
19951;SDS011;10137;49.406;19.484;2023-08-31T10:47:46;4.15;;;1.70;;
19951;SDS011;10137;49.406;19.484;2023-08-31T10:50:17;2.28;;;1.33;;
19951;SDS011;10137;49.406;19.484;2023-08-31T10:52:48;2.00;;;1.42;;
19951;SDS011;10137;49.406;19.484;2023-08-31T10:55:15;3.67;;;1.73;;
19951;SDS011;10137;49.406;19.484;2023-08-31T10:57:42;4.88;;;1.70;;
19951;SDS011;10137;49.406;19.484;2023-08-31T11:00:12;4.25;;;1.98;;
19951;SDS011;10137;49.406;19.484;2023-08-31T11:02:41;4.88;;;1.75;;
19951;SDS011;10137;49.406;19.484;2023-08-31T11:05:11;2.83;;;1.60;;
19951;SDS011;10137;49.406;19.484;2023-08-31T11:07:41;3.08;;;1.50;;
19951;SDS011;10137;49.406;19.484;2023-08-31T11:10:11;2.42;;;1.70;;
19951;SDS011;10137;49.406;19.484;2023-08-31T11:12:42;2.97;;;1.52;;
19951;SDS011;10137;49.406;19.484;2023-08-31T11:15:17;2.40;;;1.60;;
19951;SDS011;10137;49.406;19.484;2023-08-31T11:17:46;3.17;;;2.00;;
19951;SDS011;10137;49.406;19.484;2023-08-31T11:20:15;3.33;;;1.73;;
19951;SDS011;10137;49.406;19.484;2023-08-31T11:22:45;1.92;;;1.50;;
19951;SDS011;10137;49.406;19.484;2023-08-31T11:25:16;2.17;;;1.60;;
19951;SDS011;10137;49.406;19.484;2023-08-31T11:27:53;2.38;;;1.48;;
19951;SDS011;10137;49.406;19.484;2023-08-31T11:30:23;2.05;;;1.70;;
19951;SDS011;10137;49.406;19.484;2023-08-31T11:32:53;2.28;;;1.80;;
19951;SDS011;10137;49.406;19.484;2023-08-31T11:35:21;2.40;;;1.73;;
19951;SDS011;10137;49.406;19.484;2023-08-31T11:37:51;2.78;;;1.80;;
19951;SDS011;10137;49.406;19.484;2023-08-31T11:40:23;2.25;;;1.60;;
19951;SDS011;10137;49.406;19.484;2023-08-31T11:42:53;6.82;;;2.92;;
19951;SDS011;10137;49.406;19.484;2023-08-31T11:45:23;4.35;;;1.63;;
19951;SDS011;10137;49.406;19.484;2023-08-31T11:47:52;11.07;;;2.03;;
19951;SDS011;10137;49.406;19.484;2023-08-31T11:50:21;3.03;;;1.67;;
19951;SDS011;10137;49.406;19.484;2023-08-31T11:52:51;2.08;;;1.60;;
19951;SDS011;10137;49.406;19.484;2023-08-31T11:55:19;1.48;;;1.38;;
19951;SDS011;10137;49.406;19.484;2023-08-31T11:57:49;3.35;;;1.50;;
19951;SDS011;10137;49.406;19.484;2023-08-31T12:00:18;4.25;;;1.40;;
19951;SDS011;10137;49.406;19.484;2023-08-31T12:02:55;1.80;;;1.60;;
19951;SDS011;10137;49.406;19.484;2023-08-31T12:05:24;3.38;;;1.70;;
19951;SDS011;10137;49.406;19.484;2023-08-31T12:07:53;6.93;;;2.22;;
19951;SDS011;10137;49.406;19.484;2023-08-31T12:10:23;2.65;;;1.80;;
19951;SDS011;10137;49.406;19.484;2023-08-31T12:12:52;2.97;;;1.90;;
19951;SDS011;10137;49.406;19.484;2023-08-31T12:15:21;4.22;;;1.70;;
19951;SDS011;10137;49.406;19.484;2023-08-31T12:17:48;5.05;;;1.55;;
19951;SDS011;10137;49.406;19.484;2023-08-31T12:20:25;3.03;;;2.00;;
19951;SDS011;10137;49.406;19.484;2023-08-31T12:22:54;2.13;;;1.60;;
19951;SDS011;10137;49.406;19.484;2023-08-31T12:25:22;2.13;;;1.42;;
19951;SDS011;10137;49.406;19.484;2023-08-31T12:27:50;2.10;;;1.65;;
19951;SDS011;10137;49.406;19.484;2023-08-31T12:30:18;3.13;;;1.70;;
19951;SDS011;10137;49.406;19.484;2023-08-31T12:32:46;2.60;;;1.60;;
19951;SDS011;10137;49.406;19.484;2023-08-31T12:35:18;4.70;;;1.50;;
19951;SDS011;10137;49.406;19.484;2023-08-31T12:37:49;3.60;;;1.80;;
19951;SDS011;10137;49.406;19.484;2023-08-31T12:40:17;1.90;;;1.50;;
19951;SDS011;10137;49.406;19.484;2023-08-31T12:42:46;1.98;;;1.55;;
19951;SDS011;10137;49.406;19.484;2023-08-31T12:45:14;2.30;;;1.75;;
19951;SDS011;10137;49.406;19.484;2023-08-31T12:47:43;1.88;;;1.45;;
19951;SDS011;10137;49.406;19.484;2023-08-31T12:50:11;4.82;;;1.80;;
19951;SDS011;10137;49.406;19.484;2023-08-31T12:52:39;3.40;;;1.65;;
19951;SDS011;10137;49.406;19.484;2023-08-31T12:55:12;3.35;;;1.75;;
19951;SDS011;10137;49.406;19.484;2023-08-31T12:57:40;6.22;;;1.80;;
19951;SDS011;10137;49.406;19.484;2023-08-31T13:00:08;4.75;;;1.80;;
19951;SDS011;10137;49.406;19.484;2023-08-31T13:02:37;2.55;;;1.45;;
19951;SDS011;10137;49.406;19.484;2023-08-31T13:05:04;1.55;;;1.40;;
19951;SDS011;10137;49.406;19.484;2023-08-31T13:07:32;2.50;;;1.60;;
19951;SDS011;10137;49.406;19.484;2023-08-31T13:09:59;2.40;;;1.58;;
19951;SDS011;10137;49.406;19.484;2023-08-31T13:12:30;2.03;;;1.17;;
19951;SDS011;10137;49.406;19.484;2023-08-31T13:14:57;3.50;;;1.75;;
19951;SDS011;10137;49.406;19.484;2023-08-31T13:17:25;1.45;;;1.20;;
19951;SDS011;10137;49.406;19.484;2023-08-31T13:19:52;3.78;;;1.35;;
19951;SDS011;10137;49.406;19.484;2023-08-31T13:22:19;1.70;;;1.48;;
19951;SDS011;10137;49.406;19.484;2023-08-31T13:24:47;1.92;;;1.35;;
19951;SDS011;10137;49.406;19.484;2023-08-31T13:27:14;1.85;;;1.60;;
19951;SDS011;10137;49.406;19.484;2023-08-31T13:29:42;2.25;;;1.40;;
19951;SDS011;10137;49.406;19.484;2023-08-31T13:32:09;2.90;;;1.70;;
19951;SDS011;10137;49.406;19.484;2023-08-31T13:34:36;5.90;;;1.30;;
19951;SDS011;10137;49.406;19.484;2023-08-31T13:37:03;2.38;;;1.50;;
19951;SDS011;10137;49.406;19.484;2023-08-31T13:39:30;2.65;;;1.70;;
19951;SDS011;10137;49.406;19.484;2023-08-31T13:42:00;3.80;;;2.08;;
19951;SDS011;10137;49.406;19.484;2023-08-31T13:44:28;2.80;;;1.73;;
19951;SDS011;10137;49.406;19.484;2023-08-31T13:46:57;6.03;;;2.00;;
19951;SDS011;10137;49.406;19.484;2023-08-31T13:49:24;3.40;;;1.40;;
19951;SDS011;10137;49.406;19.484;2023-08-31T13:51:51;2.40;;;1.55;;
19951;SDS011;10137;49.406;19.484;2023-08-31T13:54:18;1.90;;;1.65;;
19951;SDS011;10137;49.406;19.484;2023-08-31T13:56:45;2.17;;;1.70;;
19951;SDS011;10137;49.406;19.484;2023-08-31T13:59:12;3.17;;;1.52;;
19951;SDS011;10137;49.406;19.484;2023-08-31T14:01:38;2.33;;;2.00;;
19951;SDS011;10137;49.406;19.484;2023-08-31T14:04:07;2.72;;;1.70;;
19951;SDS011;10137;49.406;19.484;2023-08-31T14:06:34;2.50;;;1.80;;
19951;SDS011;10137;49.406;19.484;2023-08-31T14:09:03;5.60;;;1.75;;
19951;SDS011;10137;49.406;19.484;2023-08-31T14:11:31;2.75;;;1.60;;
19951;SDS011;10137;49.406;19.484;2023-08-31T14:14:02;2.17;;;1.90;;
19951;SDS011;10137;49.406;19.484;2023-08-31T14:16:31;3.33;;;1.73;;
19951;SDS011;10137;49.406;19.484;2023-08-31T14:18:58;4.60;;;1.80;;
19951;SDS011;10137;49.406;19.484;2023-08-31T14:21:30;2.67;;;1.75;;
19951;SDS011;10137;49.406;19.484;2023-08-31T14:24:00;3.13;;;1.65;;
19951;SDS011;10137;49.406;19.484;2023-08-31T14:26:27;3.85;;;1.88;;
19951;SDS011;10137;49.406;19.484;2023-08-31T14:28:53;4.22;;;2.00;;
19951;SDS011;10137;49.406;19.484;2023-08-31T14:31:20;3.97;;;1.63;;
19951;SDS011;10137;49.406;19.484;2023-08-31T14:33:47;4.20;;;1.70;;
19951;SDS011;10137;49.406;19.484;2023-08-31T14:36:15;3.97;;;1.98;;
19951;SDS011;10137;49.406;19.484;2023-08-31T14:38:44;1.65;;;1.40;;
19951;SDS011;10137;49.406;19.484;2023-08-31T14:41:11;2.17;;;1.58;;